Time,TemperatureF,DewpointF,PressureIn,WindDirection,WindDirectionDegrees,WindSpeedMPH,WindSpeedGustMPH,Humidity,HourlyPrecipIn,Conditions,Clouds,dailyrainin,SolarRadiationWatts/m^2,SoftwareType,DateUTC
2013-09-07 00:22:00,66.0,40.0,-100.00,SSE,167,2.0,5.0,38,0.00,,,0.00,0.000000,,2013-09-07 07:22:00,
2013-09-07 00:33:00,66.0,40.0,-100.00,SSE,167,2.0,5.0,38,0.00,,,0.00,0.000000,,2013-09-07 07:33:00,
2013-09-07 00:42:00,66.0,40.0,-100.00,SSE,167,2.0,5.0,38,0.00,,,0.00,0.000000,,2013-09-07 07:42:00,
2013-09-07 00:52:00,66.0,40.0,-100.00,SSE,167,2.0,5.0,38,0.00,,,0.00,0.000000,,2013-09-07 07:52:00,
2013-09-07 01:22:00,63.0,38.0,-100.00,East,87,0.0,5.0,40,0.00,,,0.00,0.000000,,2013-09-07 08:22:00,
2013-09-07 01:32:00,63.0,38.0,-100.00,East,87,0.0,5.0,40,0.00,,,0.00,0.000000,,2013-09-07 08:32:00,
2013-09-07 01:43:00,63.0,38.0,-100.00,East,87,0.0,5.0,40,0.00,,,0.00,0.000000,,2013-09-07 08:43:00,
2013-09-07 01:52:00,63.0,38.0,-100.00,East,87,0.0,5.0,40,0.00,,,0.00,0.000000,,2013-09-07 08:52:00,
2013-09-07 02:21:00,65.0,38.0,-100.00,East,97,0.0,7.0,37,0.00,,,0.00,0.000000,,2013-09-07 09:21:00,
2013-09-07 02:32:00,65.0,38.0,-100.00,East,97,0.0,7.0,37,0.00,,,0.00,0.000000,,2013-09-07 09:32:00,
2013-09-07 02:42:00,65.0,38.0,-100.00,East,97,0.0,7.0,37,0.00,,,0.00,0.000000,,2013-09-07 09:42:00,
2013-09-07 02:52:00,65.0,38.0,-100.00,East,97,0.0,7.0,37,0.00,,,0.00,0.000000,,2013-09-07 09:52:00,
2013-09-07 03:21:00,66.0,37.0,-100.00,SSE,152,3.0,4.0,34,0.00,,,0.00,0.000000,,2013-09-07 10:21:00,
2013-09-07 03:31:00,66.0,37.0,-100.00,SSE,152,3.0,4.0,34,0.00,,,0.00,0.000000,,2013-09-07 10:31:00,
2013-09-07 03:41:00,66.0,37.0,-100.00,SSE,152,3.0,4.0,34,0.00,,,0.00,0.000000,,2013-09-07 10:41:00,
2013-09-07 03:51:00,66.0,37.0,-100.00,SSE,152,3.0,4.0,34,0.00,,,0.00,0.000000,,2013-09-07 10:51:00,
2013-09-07 04:23:00,61.0,35.0,-100.00,East,101,0.0,6.0,38,0.00,,,0.00,0.000000,,2013-09-07 11:23:00,
2013-09-07 04:33:00,61.0,35.0,-100.00,East,101,0.0,6.0,38,0.00,,,0.00,0.000000,,2013-09-07 11:33:00,
2013-09-07 04:43:00,61.0,35.0,-100.00,East,101,0.0,6.0,38,0.00,,,0.00,0.000000,,2013-09-07 11:43:00,
2013-09-07 04:52:00,61.0,35.0,-100.00,East,101,0.0,6.0,38,0.00,,,0.00,0.000000,,2013-09-07 11:52:00,
2013-09-07 05:22:00,62.0,33.0,-100.00,ESE,114,0.0,6.0,33,0.00,,,-99.99,0.000000,,2013-09-07 12:22:00,
2013-09-07 05:32:00,62.0,33.0,-100.00,ESE,114,0.0,6.0,33,0.00,,,-99.99,0.000000,,2013-09-07 12:32:00,
2013-09-07 05:42:00,62.0,33.0,-100.00,ESE,114,0.0,6.0,33,0.00,,,-99.99,0.000000,,2013-09-07 12:42:00,
2013-09-07 05:52:00,62.0,33.0,-100.00,ESE,114,0.0,6.0,33,0.00,,,-99.99,0.000000,,2013-09-07 12:52:00,
2013-09-07 06:21:00,64.0,34.0,-100.00,SE,124,0.0,6.0,33,0.00,,,0.00,0.000000,,2013-09-07 13:21:00,
2013-09-07 06:32:00,64.0,34.0,-100.00,SE,124,0.0,6.0,33,0.00,,,0.00,0.000000,,2013-09-07 13:32:00,
2013-09-07 06:42:00,64.0,34.0,-100.00,SE,124,0.0,6.0,33,0.00,,,0.00,0.000000,,2013-09-07 13:42:00,
2013-09-07 06:52:00,64.0,34.0,-100.00,SE,124,0.0,6.0,33,0.00,,,0.00,0.000000,,2013-09-07 13:52:00,
2013-09-07 07:22:00,62.0,35.0,-100.00,ESE,107,0.0,5.0,36,0.00,,,0.00,3.000000,,2013-09-07 14:22:00,
2013-09-07 07:32:00,62.0,35.0,-100.00,ESE,107,0.0,5.0,36,0.00,,,0.00,3.000000,,2013-09-07 14:32:00,
2013-09-07 07:42:00,62.0,35.0,-100.00,ESE,107,0.0,5.0,36,0.00,,,0.00,3.000000,,2013-09-07 14:42:00,
2013-09-07 07:52:00,62.0,35.0,-100.00,ESE,107,0.0,5.0,36,0.00,,,0.00,3.000000,,2013-09-07 14:52:00,
2013-09-07 13:22:00,94.0,44.0,-100.00,West,276,5.0,11.0,18,-99.99,,,0.00,1074.000000,,2013-09-07 20:22:00,
2013-09-07 13:32:00,94.0,44.0,-100.00,West,276,5.0,11.0,18,-99.99,,,0.00,1074.000000,,2013-09-07 20:32:00,
2013-09-07 13:42:00,94.0,44.0,-100.00,West,276,5.0,11.0,18,-99.99,,,0.00,1074.000000,,2013-09-07 20:42:00,
2013-09-07 13:52:00,94.0,44.0,-100.00,West,276,5.0,11.0,18,-99.99,,,0.00,1074.000000,,2013-09-07 20:52:00,
2013-09-07 14:22:00,95.0,36.0,-100.00,NW,321,3.0,12.0,13,0.00,,,0.00,1064.000000,,2013-09-07 21:22:00,
2013-09-07 14:34:00,95.0,36.0,-100.00,NW,321,3.0,12.0,13,0.00,,,0.00,1064.000000,,2013-09-07 21:34:00,
2013-09-07 14:44:00,95.0,36.0,-100.00,NW,321,3.0,12.0,13,0.00,,,0.00,1064.000000,,2013-09-07 21:44:00,
2013-09-07 14:54:00,95.0,36.0,-100.00,NW,321,3.0,12.0,13,0.00,,,0.00,1064.000000,,2013-09-07 21:54:00,
2013-09-07 15:24:00,93.0,31.0,-100.00,WNW,298,5.0,13.0,11,0.00,,,0.00,995.000000,,2013-09-07 22:24:00,
2013-09-07 15:33:00,93.0,31.0,-100.00,WNW,298,5.0,13.0,11,0.00,,,0.00,995.000000,,2013-09-07 22:33:00,
2013-09-07 15:43:00,93.0,31.0,-100.00,WNW,298,5.0,13.0,11,0.00,,,0.00,995.000000,,2013-09-07 22:43:00,
2013-09-07 15:53:00,93.0,31.0,-100.00,WNW,298,5.0,13.0,11,0.00,,,0.00,995.000000,,2013-09-07 22:53:00,
2013-09-07 16:23:00,94.0,39.0,-100.00,West,278,6.0,13.0,15,0.00,,,0.00,851.000000,,2013-09-07 23:23:00,
2013-09-07 16:34:00,94.0,39.0,-100.00,West,278,6.0,13.0,15,0.00,,,0.00,851.000000,,2013-09-07 23:34:00,
2013-09-07 16:42:00,94.0,39.0,-100.00,West,278,6.0,13.0,15,0.00,,,0.00,851.000000,,2013-09-07 23:42:00,
2013-09-07 16:52:00,94.0,39.0,-100.00,West,278,6.0,13.0,15,0.00,,,0.00,851.000000,,2013-09-07 23:52:00,
2013-09-07 17:22:00,93.0,37.0,-100.00,South,182,5.0,13.0,14,0.00,,,0.00,650.000000,,2013-09-08 00:22:00,
2013-09-07 17:32:00,93.0,37.0,-100.00,South,182,5.0,13.0,14,0.00,,,0.00,650.000000,,2013-09-08 00:32:00,
2013-09-07 17:42:00,93.0,37.0,-100.00,South,182,5.0,13.0,14,0.00,,,0.00,650.000000,,2013-09-08 00:42:00,
2013-09-07 17:52:00,93.0,37.0,-100.00,South,182,5.0,13.0,14,0.00,,,0.00,650.000000,,2013-09-08 00:52:00,
2013-09-07 18:22:00,91.0,31.0,-100.00,SW,225,5.0,12.0,12,0.00,,,0.00,419.000000,,2013-09-08 01:22:00,
2013-09-07 18:32:00,91.0,31.0,-100.00,SW,225,5.0,12.0,12,0.00,,,0.00,419.000000,,2013-09-08 01:32:00,
2013-09-07 18:42:00,91.0,31.0,-100.00,SW,225,5.0,12.0,12,0.00,,,0.00,419.000000,,2013-09-08 01:42:00,
2013-09-07 18:52:00,91.0,31.0,-100.00,SW,225,5.0,12.0,12,0.00,,,0.00,419.000000,,2013-09-08 01:52:00,
2013-09-07 20:22:00,73.0,27.0,-100.00,ESE,107,0.0,9.0,18,0.00,,,0.00,3.000000,,2013-09-08 03:22:00,
2013-09-07 20:34:00,73.0,27.0,-100.00,ESE,107,0.0,9.0,18,0.00,,,0.00,3.000000,,2013-09-08 03:34:00,
2013-09-07 20:44:00,73.0,27.0,-100.00,ESE,107,0.0,9.0,18,0.00,,,0.00,3.000000,,2013-09-08 03:44:00,
2013-09-07 20:54:00,73.0,27.0,-100.00,ESE,107,0.0,9.0,18,0.00,,,0.00,3.000000,,2013-09-08 03:54:00,
2013-09-07 21:24:00,71.0,28.0,-100.00,SE,136,2.0,4.0,20,0.00,,,0.00,0.000000,,2013-09-08 04:24:00,
2013-09-07 21:34:00,71.0,28.0,-100.00,SE,136,2.0,4.0,20,0.00,,,0.00,0.000000,,2013-09-08 04:34:00,
2013-09-07 21:43:00,71.0,28.0,-100.00,SE,136,2.0,4.0,20,0.00,,,0.00,0.000000,,2013-09-08 04:43:00,
2013-09-07 21:53:00,71.0,28.0,-100.00,SE,136,2.0,4.0,20,0.00,,,0.00,0.000000,,2013-09-08 04:53:00,
2013-09-07 22:23:00,72.0,27.0,-100.00,ESE,114,1.0,10.0,19,0.00,,,0.00,0.000000,,2013-09-08 05:23:00,
2013-09-07 22:34:00,72.0,27.0,-100.00,ESE,114,1.0,10.0,19,0.00,,,0.00,0.000000,,2013-09-08 05:34:00,
2013-09-07 22:43:00,72.0,27.0,-100.00,ESE,114,1.0,10.0,19,0.00,,,0.00,0.000000,,2013-09-08 05:43:00,
2013-09-07 22:52:00,72.0,27.0,-100.00,ESE,114,1.0,10.0,19,0.00,,,0.00,0.000000,,2013-09-08 05:52:00,
2013-09-07 23:21:00,72.0,27.0,-100.00,SE,124,2.0,6.0,19,0.00,,,0.00,0.000000,,2013-09-08 06:21:00,
2013-09-07 23:33:00,72.0,27.0,-100.00,SE,124,2.0,6.0,19,0.00,,,0.00,0.000000,,2013-09-08 06:33:00,
2013-09-07 23:42:00,72.0,27.0,-100.00,SE,124,2.0,6.0,19,0.00,,,0.00,0.000000,,2013-09-08 06:42:00,
2013-09-07 23:53:00,72.0,27.0,-100.00,SE,124,2.0,6.0,19,0.00,,,0.00,0.000000,,2013-09-08 06:53:00,